Time;durP1;ratioP1;P1;durP2;ratioP2;P2;SDS_P1;SDS_P2;PMS_P1;PMS_P2;Temp;Humidity;BMP_temperature;BMP_pressure;BME280_temperature;BME280_humidity;BME280_pressure;Samples;Min_cycle;Max_cycle;Signal;HPM_P1;HPM_P2
2022/08/24 00:02:11;;;;;;;6.77;4.87;;;17.20;99.90;;;17.26;95.05;101438.53;4916825;29;20512;-72
2022/08/24 00:04:41;;;;;;;7.10;4.90;;;17.20;99.90;;;17.24;95.50;101434.34;4913097;29;20439;-73
2022/08/24 00:07:16;;;;;;;6.77;5.20;;;17.20;11.90;;;17.22;95.73;101436.50;4917649;29;20457;-73
2022/08/24 00:09:56;;;;;;;6.33;5.80;;;17.20;99.90;;;17.18;96.31;101438.03;4919892;29;20476;-73
2022/08/24 00:12:25;;;;;;;5.70;4.80;;;17.20;99.90;;;17.24;95.92;101445.31;4915195;29;20439;-73
2022/08/24 00:14:56;;;;;;;9.20;5.10;;;17.20;1.00;;;17.22;96.43;101455.66;4917025;29;20444;-72
2022/08/24 00:17:25;;;;;;;11.13;5.70;;;17.10;1.00;;;17.24;96.28;101453.50;4917960;29;20424;-73
2022/08/24 00:19:54;;;;;;;6.30;5.60;;;17.20;99.90;;;17.21;96.58;101448.50;4921124;29;20441;-72
2022/08/24 00:22:25;;;;;;;11.20;5.50;;;17.10;1.00;;;17.20;96.85;101441.38;4919403;29;20935;-72
2022/08/24 00:24:55;;;;;;;6.43;4.30;;;17.10;99.90;;;17.17;97.15;101441.84;4914169;29;20464;-72
2022/08/24 00:27:25;;;;;;;5.53;5.03;;;17.10;30.00;;;17.12;97.49;101447.19;4911894;29;20443;-73
2022/08/24 00:29:54;;;;;;;9.83;5.40;;;17.00;99.90;;;17.19;97.39;101442.44;4921273;29;20481;-72
2022/08/24 00:32:23;;;;;;;6.23;5.43;;;17.10;99.90;;;17.27;96.91;101444.84;4923007;29;20870;-72
2022/08/24 00:34:52;;;;;;;4.70;4.30;;;17.10;99.90;;;17.20;97.28;101441.38;4930428;29;20480;-72
2022/08/24 00:37:29;;;;;;;7.00;5.77;;;17.10;99.90;;;17.19;97.62;101442.44;4924747;29;20456;-72
2022/08/24 00:39:59;;;;;;;5.53;5.03;;;17.10;99.90;;;17.07;97.84;101450.59;4920196;29;20994;-72
2022/08/24 00:42:28;;;;;;;6.80;6.10;;;17.00;99.90;;;17.05;98.42;101451.88;4919015;29;20476;-72
2022/08/24 00:44:58;;;;;;;8.10;5.93;;;17.00;99.90;;;17.04;98.73;101447.50;4914904;29;20500;-72
2022/08/24 00:47:38;;;;;;;8.93;5.03;;;17.00;99.90;;;17.04;98.96;101452.97;4921795;29;20464;-72
2022/08/24 00:50:13;;;;;;;8.33;5.70;;;17.00;99.90;;;17.05;98.84;101450.00;4920153;29;20569;-71
2022/08/24 00:52:49;;;;;;;6.03;5.43;;;17.00;99.90;;;17.01;98.99;101453.41;4919739;29;20441;-72
2022/08/24 00:55:29;;;;;;;5.10;4.70;;;17.00;99.90;;;17.10;99.42;101450.13;4919966;29;20552;-73
2022/08/24 00:58:12;;;;;;;9.33;6.57;;;17.00;99.90;;;17.03;99.58;101448.56;4919465;29;20453;-72
2022/08/24 01:00:56;;;;;;;6.73;5.50;;;16.90;99.90;;;16.94;100.00;101450.78;4914894;29;20445;-72
2022/08/24 01:03:27;;;;;;;7.57;5.83;;;16.90;99.90;;;16.85;100.00;101450.25;4913684;29;20534;-73
2022/08/24 01:05:57;;;;;;;6.27;5.67;;;16.80;99.90;;;16.80;100.00;101452.84;4920260;29;20423;-72
2022/08/24 01:08:27;;;;;;;9.37;6.37;;;16.80;99.90;;;16.79;100.00;101445.72;4921888;29;20958;-72
2022/08/24 01:11:01;;;;;;;8.03;5.90;;;16.80;99.90;;;16.93;100.00;101451.84;4912901;29;20467;-73
2022/08/24 01:13:33;;;;;;;13.60;5.50;;;16.80;99.90;;;16.83;100.00;101452.41;4915158;29;20563;-73
2022/08/24 01:16:08;;;;;;;6.53;5.93;;;16.80;99.90;;;16.80;100.00;101444.63;4915053;29;20468;-73
2022/08/24 01:18:50;;;;;;;10.20;5.37;;;16.70;99.90;;;16.81;100.00;101448.22;4916618;29;20447;-72
2022/08/24 01:21:25;;;;;;;7.17;6.47;;;16.80;99.90;;;16.92;100.00;101451.00;4912763;29;20843;-71
2022/08/24 01:24:00;;;;;;;6.40;5.47;;;16.80;99.90;;;16.83;100.00;101444.19;4918230;29;20476;-74
2022/08/24 01:26:37;;;;;;;10.13;5.93;;;16.80;99.90;;;16.83;100.00;101446.09;4931498;29;20519;-72
2022/08/24 01:29:13;;;;;;;10.43;6.73;;;16.70;99.90;;;16.77;100.00;101447.84;4918830;29;20911;-73
2022/08/24 01:31:42;;;;;;;6.50;5.40;;;16.70;99.90;;;16.73;100.00;101452.09;4916914;29;20536;-72
2022/08/24 01:34:12;;;;;;;6.63;5.07;;;16.60;99.90;;;16.79;100.00;101447.63;4916146;29;20754;-72
2022/08/24 01:36:45;;;;;;;9.13;5.73;;;16.70;99.90;;;16.77;100.00;101447.00;4914450;29;20441;-73
2022/08/24 01:39:22;;;;;;;6.17;5.60;;;16.70;99.90;;;16.66;100.00;101462.25;4921085;29;20433;-73
2022/08/24 01:41:51;;;;;;;7.70;6.00;;;16.60;99.90;;;16.68;100.00;101456.56;4917156;29;20869;-74
2022/08/24 01:44:22;;;;;;;9.00;7.43;;;16.60;99.90;;;16.82;100.00;101466.28;4912086;29;20472;-72
2022/08/24 01:46:54;;;;;;;8.03;7.23;;;16.60;99.90;;;16.77;100.00;101463.41;4916227;29;20423;-73
2022/08/24 01:49:26;;;;;;;6.97;6.27;;;16.70;99.90;;;16.65;100.00;101463.34;4918237;29;20556;-72
2022/08/24 01:51:56;;;;;;;7.10;6.40;;;16.60;99.90;;;16.60;100.00;101471.41;4917466;29;20572;-72
2022/08/24 01:54:28;;;;;;;9.33;6.23;;;16.60;99.90;;;16.73;100.00;101468.50;4917092;29;21004;-73
2022/08/24 01:56:57;;;;;;;11.77;6.23;;;16.60;99.90;;;16.90;100.00;101464.06;4916310;29;20464;-72
2022/08/24 01:59:27;;;;;;;7.80;6.53;;;16.70;99.90;;;16.95;100.00;101466.94;4917334;29;20794;-72
2022/08/24 02:02:02;;;;;;;17.93;8.00;;;16.80;99.90;;;17.03;100.00;101468.53;4924225;29;20471;-72
2022/08/24 02:04:34;;;;;;;13.87;7.37;;;16.80;99.90;;;17.21;100.00;101467.66;4914503;29;20475;-71
2022/08/24 02:07:04;;;;;;;8.33;6.30;;;17.00;99.90;;;17.29;100.00;101467.31;4918375;29;20480;-71
2022/08/24 02:09:37;;;;;;;8.87;7.30;;;17.00;99.90;;;17.33;100.00;101474.03;4914742;29;20457;-73
2022/08/24 02:12:08;;;;;;;7.30;6.60;;;17.10;99.90;;;17.41;100.00;101473.69;4916895;29;20895;-71
2022/08/24 02:14:37;;;;;;;9.07;7.80;;;17.20;99.90;;;17.46;99.53;101471.09;4920303;29;20469;-71
2022/08/24 02:17:09;;;;;;;10.70;7.20;;;17.20;99.90;;;17.37;100.00;101469.75;4919625;29;20480;-73
2022/08/24 02:19:38;;;;;;;8.73;6.83;;;17.20;99.90;;;17.42;99.79;101475.34;4910946;29;20920;-73
2022/08/24 02:22:08;;;;;;;10.70;7.80;;;17.20;99.90;;;17.56;99.04;101479.56;4911982;29;20446;-72
2022/08/24 02:24:41;;;;;;;6.83;5.53;;;17.30;99.90;;;17.52;98.97;101467.41;4929176;29;21128;-73
2022/08/24 02:27:10;;;;;;;13.50;7.40;;;17.30;99.90;;;17.55;99.43;101466.94;4909786;29;20454;-73
2022/08/24 02:29:39;;;;;;;11.40;7.10;;;17.30;99.90;;;17.57;99.08;101467.50;4911433;29;20484;-73
2022/08/24 02:32:08;;;;;;;10.10;8.63;;;17.40;99.90;;;17.51;99.52;101456.69;4914952;29;20477;-72
2022/08/24 02:34:37;;;;;;;8.00;7.20;;;17.40;99.90;;;17.49;100.00;101464.28;4910489;29;20481;-72
2022/08/24 02:37:07;;;;;;;10.60;7.90;;;17.40;99.90;;;17.52;100.00;101459.22;4916065;29;20819;-73
2022/08/24 02:39:36;;;;;;;13.80;8.80;;;17.40;99.90;;;17.50;100.00;101461.31;4912344;29;20796;-72
2022/08/24 02:42:09;;;;;;;11.87;8.23;;;17.40;99.90;;;17.51;100.00;101465.75;4908132;29;20424;-73
2022/08/24 02:44:38;;;;;;;11.17;9.60;;;17.30;99.90;;;17.34;100.00;101461.97;4919687;29;20465;-72
2022/08/24 02:47:08;;;;;;;17.60;9.60;;;17.30;99.90;;;17.50;100.00;101465.97;4926289;29;20455;-72
2022/08/24 02:49:37;;;;;;;17.20;9.83;;;17.40;99.90;;;17.37;100.00;101464.28;4916729;29;20420;-72
2022/08/24 02:52:07;;;;;;;14.87;9.50;;;17.30;99.90;;;17.35;100.00;101460.94;4914696;29;20481;-72
2022/08/24 02:54:38;;;;;;;13.30;9.20;;;17.30;99.90;;;17.21;100.00;101453.97;4911881;29;20571;-71
2022/08/24 02:57:09;;;;;;;17.20;10.20;;;17.20;99.90;;;17.16;100.00;101454.69;4911076;29;20449;-73
2022/08/24 02:59:39;;;;;;;11.97;8.00;;;17.10;99.90;;;17.10;100.00;101452.03;4909209;29;20453;-72
2022/08/24 03:02:08;;;;;;;11.10;7.97;;;17.10;99.90;;;17.01;100.00;101448.78;4914018;29;20468;-72
2022/08/24 03:04:37;;;;;;;15.43;9.33;;;17.00;99.90;;;17.04;100.00;101447.50;4911427;29;20492;-72
2022/08/24 03:07:06;;;;;;;15.53;8.83;;;17.00;99.90;;;17.02;100.00;101445.00;4907289;29;20966;-72
2022/08/24 03:09:35;;;;;;;10.90;9.17;;;16.90;99.90;;;17.00;100.00;101457.22;4918665;29;20415;-72
2022/08/24 03:12:04;;;;;;;9.27;7.60;;;16.90;99.90;;;16.91;100.00;101443.88;4917075;29;20444;-72
2022/08/24 03:14:36;;;;;;;10.60;8.77;;;16.90;99.90;;;16.81;100.00;101454.50;4912438;29;20965;-71
2022/08/24 03:17:05;;;;;;;9.83;8.60;;;16.80;99.90;;;16.83;100.00;101451.56;4913097;29;20491;-71
2022/08/24 03:19:34;;;;;;;11.60;8.40;;;16.80;99.90;;;16.82;100.00;101456.19;4922846;29;20456;-72
2022/08/24 03:22:04;;;;;;;12.30;9.37;;;16.80;99.90;;;16.90;100.00;101452.28;4915736;29;20453;-71
2022/08/24 03:24:33;;;;;;;11.23;9.27;;;16.80;99.90;;;16.73;100.00;101457.56;4916343;29;20486;-72
2022/08/24 03:27:03;;;;;;;10.87;9.87;;;16.70;99.90;;;16.78;100.00;101452.25;4921673;29;20451;-71
2022/08/24 03:29:34;;;;;;;11.60;8.60;;;16.70;99.90;;;16.67;100.00;101463.94;4942370;29;20487;-71
2022/08/24 03:32:05;;;;;;;9.83;8.73;;;16.70;99.90;;;16.65;100.00;101463.34;4921184;29;20529;-72
2022/08/24 03:34:34;;;;;;;12.70;9.27;;;16.60;99.90;;;16.66;100.00;101470.47;4920278;29;20484;-72
2022/08/24 03:37:04;;;;;;;10.67;9.57;;;16.60;99.90;;;16.72;100.00;101476.91;4922358;29;20519;-72
2022/08/24 03:39:33;;;;;;;16.23;10.57;;;16.60;99.90;;;16.55;100.00;101471.22;4920848;29;20862;-72
2022/08/24 03:42:03;;;;;;;13.53;10.50;;;16.60;99.90;;;16.56;100.00;101461.94;4914449;29;21026;-72
2022/08/24 03:44:32;;;;;;;11.93;8.47;;;16.60;99.90;;;16.58;100.00;101454.38;4915549;29;20533;-72
2022/08/24 03:47:01;;;;;;;11.87;9.17;;;16.50;99.90;;;16.53;100.00;101457.78;4916414;29;20468;-72
2022/08/24 03:49:32;;;;;;;10.93;9.27;;;16.50;99.90;;;16.46;100.00;101462.47;4914319;29;20512;-72
2022/08/24 03:52:01;;;;;;;13.27;9.77;;;16.50;99.90;;;16.41;100.00;101464.22;4914368;29;20563;-72
2022/08/24 03:54:31;;;;;;;10.20;8.90;;;16.50;99.90;;;16.34;100.00;101463.44;4915735;29;20557;-74
2022/08/24 03:57:00;;;;;;;10.70;9.47;;;16.40;99.90;;;16.50;100.00;101465.59;4914041;29;20523;-72
2022/08/24 03:59:29;;;;;;;14.13;10.40;;;16.40;99.90;;;16.45;100.00;101466.28;4910393;29;20458;-72
2022/08/24 04:01:59;;;;;;;13.10;10.70;;;16.40;99.90;;;16.46;100.00;101472.53;4918087;29;20481;-72
2022/08/24 04:04:29;;;;;;;15.80;9.57;;;16.40;99.90;;;16.62;100.00;101477.44;4917380;29;20846;-73
2022/08/24 04:06:59;;;;;;;13.30;10.67;;;16.50;99.90;;;16.61;100.00;101474.94;4911691;29;21105;-72
2022/08/24 04:09:28;;;;;;;12.73;10.97;;;16.60;99.90;;;16.51;100.00;101480.91;4909525;29;20440;-72
2022/08/24 04:11:58;;;;;;;17.03;10.90;;;16.50;99.90;;;16.43;100.00;101473.00;4915027;29;20458;-72
2022/08/24 04:14:27;;;;;;;11.60;10.40;;;16.40;99.90;;;16.45;100.00;101482.66;4915164;29;20487;-73
2022/08/24 04:17:02;;;;;;;11.03;9.90;;;16.40;99.90;;;16.51;100.00;101475.44;4908400;29;20431;-72
2022/08/24 04:19:56;;;;;;;16.40;10.70;;;16.50;99.90;;;16.60;100.00;101479.59;4911454;29;20428;-72
2022/08/24 04:22:32;;;;;;;10.97;9.40;;;16.50;99.90;;;16.54;100.00;101485.94;4918175;29;20428;-73
2022/08/24 04:25:04;;;;;;;12.73;10.77;;;16.50;99.90;;;16.66;100.00;101483.28;4918795;29;20439;-73
2022/08/24 04:27:37;;;;;;;14.53;11.17;;;16.60;99.90;;;16.83;100.00;101490.66;4914090;29;20540;-72
2022/08/24 04:30:09;;;;;;;11.10;9.97;;;16.60;99.90;;;16.80;100.00;101490.25;4919781;29;20560;-72
2022/08/24 04:33:00;;;;;;;11.03;9.67;;;16.60;99.90;;;16.81;100.00;101481.84;4914211;29;20475;-72
2022/08/24 04:35:29;;;;;;;13.37;11.87;;;16.60;99.90;;;16.99;100.00;101488.38;4919949;29;20829;-73
2022/08/24 04:38:00;;;;;;;11.27;10.00;;;16.80;99.90;;;17.20;100.00;101490.59;4911181;29;20446;-71
2022/08/24 04:40:29;;;;;;;10.57;9.43;;;16.80;99.90;;;17.30;100.00;101488.97;4932515;29;20435;-72
2022/08/24 04:43:00;;;;;;;12.63;9.50;;;16.90;99.90;;;17.40;100.00;101496.63;4916362;29;20469;-71
2022/08/24 04:45:31;;;;;;;12.20;10.20;;;17.00;99.90;;;17.54;100.00;101498.09;4918530;29;20827;-71
2022/08/24 04:48:00;;;;;;;11.97;9.43;;;17.10;99.90;;;17.49;100.00;101500.69;4922528;29;20907;-73
2022/08/24 04:50:33;;;;;;;10.43;9.10;;;17.10;99.90;;;17.50;100.00;101502.38;4923091;29;20434;-72
2022/08/24 04:53:05;;;;;;;11.17;9.97;;;17.20;99.90;;;17.61;99.92;101509.00;4920182;29;20462;-72
2022/08/24 04:55:43;;;;;;;16.40;10.47;;;17.20;99.90;;;17.63;98.39;101502.19;4917350;29;20528;-71
2022/08/24 04:58:14;;;;;;;12.33;9.40;;;17.30;99.90;;;17.75;97.75;101500.34;4918267;29;20508;-73
2022/08/24 05:00:45;;;;;;;10.53;9.23;;;17.30;99.90;;;17.90;96.42;101501.78;4935462;29;20491;-71
2022/08/24 05:03:16;;;;;;;9.33;8.33;;;17.50;99.90;;;18.02;94.76;101510.84;4924787;29;20442;-72
2022/08/24 05:05:49;;;;;;;10.73;9.70;;;17.60;99.90;;;18.12;93.43;101508.34;4931702;29;20548;-72
2022/08/24 05:08:20;;;;;;;11.33;8.63;;;17.70;99.90;;;18.17;92.94;101514.78;4914327;29;20864;-73
2022/08/24 05:10:50;;;;;;;11.00;9.47;;;17.70;99.90;;;18.08;93.72;101518.13;4914751;29;20457;-72
2022/08/24 05:13:20;;;;;;;16.87;11.90;;;17.70;99.90;;;18.09;94.27;101522.53;4919597;29;20494;-72
2022/08/24 05:15:50;;;;;;;13.90;10.43;;;17.70;99.90;;;17.98;94.02;101526.91;4917337;29;20508;-73
2022/08/24 05:18:19;;;;;;;13.93;10.20;;;17.70;99.90;;;17.90;96.55;101529.16;4923024;29;20454;-71
2022/08/24 05:20:48;;;;;;;16.73;11.17;;;17.60;99.90;;;17.97;95.40;101530.72;4964146;23;20495;-72
2022/08/24 05:23:18;;;;;;;16.03;8.27;;;17.60;99.90;;;17.97;94.73;101529.88;4948150;28;20493;-71
2022/08/24 05:25:49;;;;;;;13.70;10.33;;;17.60;99.90;;;17.67;97.00;101541.72;4931054;29;20833;-74
2022/08/24 05:28:19;;;;;;;12.70;9.00;;;17.50;99.90;;;17.51;97.75;101547.84;4938919;29;20462;-69
2022/08/24 05:30:48;;;;;;;12.30;8.70;;;17.40;99.90;;;17.41;99.97;101553.03;4943827;29;20423;-68
2022/08/24 05:33:18;;;;;;;11.70;7.97;;;17.20;99.90;;;17.55;98.49;101538.09;4947672;29;20454;-69
2022/08/24 05:35:47;;;;;;;18.63;7.80;;;17.30;99.90;;;17.60;98.22;101551.09;4945552;29;20436;-69
2022/08/24 05:38:16;;;;;;;8.33;6.80;;;17.30;99.90;;;17.58;98.15;101543.09;4939106;29;20459;-69
2022/08/24 05:40:44;;;;;;;10.27;9.10;;;17.30;99.90;;;17.66;97.98;101545.53;4936217;29;20519;-69
2022/08/24 05:43:15;;;;;;;10.37;7.43;;;17.30;99.90;;;17.49;98.46;101547.22;4943548;29;20502;-69
2022/08/24 05:45:44;;;;;;;8.17;6.73;;;17.20;99.90;;;17.74;97.40;101545.19;4929526;29;20493;-73
2022/08/24 05:48:13;;;;;;;15.63;9.27;;;17.40;99.90;;;17.82;97.71;101544.00;4934283;29;20445;-70
2022/08/24 05:51:00;;;;;;;11.27;7.80;;;17.40;99.90;;;18.19;95.17;101539.22;4934588;29;20446;-69
2022/08/24 05:53:34;;;;;;;12.57;8.40;;;17.60;99.90;;;18.38;93.81;101538.03;4934654;29;20491;-70
2022/08/24 05:56:06;;;;;;;12.03;7.83;;;17.80;99.90;;;18.49;92.98;101545.41;4928101;29;20448;-70
2022/08/24 05:58:38;;;;;;;14.53;9.53;;;17.90;99.90;;;18.53;91.98;101549.41;4931614;29;20459;-71
2022/08/24 06:01:09;;;;;;;17.17;8.50;;;18.10;99.90;;;18.72;91.35;101549.25;4939697;29;20512;-70
2022/08/24 06:03:40;;;;;;;9.50;7.60;;;18.20;99.90;;;19.08;89.30;101554.41;4933699;29;20474;-71
2022/08/24 06:06:12;;;;;;;10.17;6.97;;;18.40;99.90;;;19.32;87.76;101549.69;4934263;29;20451;-71
2022/08/24 06:08:44;;;;;;;8.87;7.00;;;18.50;99.90;;;19.65;85.78;101560.00;4933053;29;20956;-70
2022/08/24 06:11:23;;;;;;;11.10;8.23;;;18.80;99.90;;;19.78;84.15;101556.94;4928161;29;20781;-72
2022/08/24 06:14:04;;;;;;;11.53;8.50;;;19.00;99.90;;;19.83;84.41;101557.84;4929539;29;21026;-71
2022/08/24 06:16:41;;;;;;;10.47;7.90;;;19.10;99.90;;;19.82;84.87;101560.84;4937987;29;21035;-70
2022/08/24 06:19:14;;;;;;;10.60;8.53;;;19.20;99.90;;;19.58;84.72;101562.03;4948798;29;20535;-71
2022/08/24 06:21:45;;;;;;;13.37;8.43;;;19.30;99.90;;;19.30;86.43;101569.16;4931528;29;20950;-71
2022/08/24 06:24:15;;;;;;;12.47;7.23;;;19.20;99.90;;;19.20;87.87;101563.47;4940345;29;20558;-72
2022/08/24 06:29:34;;;;;;;13.60;8.43;;;19.00;99.90;;;19.61;86.65;101569.78;4935684;29;20487;-71
2022/08/24 06:32:24;;;;;;;15.07;9.53;;;19.10;99.90;;;19.53;86.16;101571.00;4939753;29;20443;-71
2022/08/24 06:34:57;;;;;;;12.23;7.73;;;19.10;99.90;;;19.39;87.23;101570.44;4940114;29;20512;-71
2022/08/24 06:37:28;;;;;;;24.47;8.87;;;19.10;99.90;;;19.04;90.11;101570.53;4934990;29;20798;-70
2022/08/24 06:39:58;;;;;;;24.43;12.13;;;18.90;99.90;;;19.06;91.64;101567.56;4922859;29;20457;-69
2022/08/24 06:42:28;;;;;;;17.40;10.07;;;18.80;99.90;;;19.27;90.00;101580.59;4920048;29;20469;-69
2022/08/24 06:45:01;;;;;;;19.90;12.50;;;18.90;99.90;;;19.25;90.43;101570.97;4919780;29;20473;-70
2022/08/24 06:47:31;;;;;;;14.83;8.73;;;18.80;99.90;;;19.33;90.93;101579.63;4921647;29;20550;-70
2022/08/24 06:50:02;;;;;;;19.90;10.10;;;18.90;99.90;;;19.59;89.13;101574.69;4932631;29;20512;-70
2022/08/24 06:52:31;;;;;;;15.63;9.87;;;19.10;99.90;;;19.56;89.55;101584.25;4937733;29;20548;-69
2022/08/24 06:55:02;;;;;;;17.43;11.27;;;19.20;99.90;;;19.55;90.15;101588.09;4929933;29;20854;-70
2022/08/24 06:57:31;;;;;;;20.33;10.40;;;19.20;99.90;;;19.36;92.04;101583.81;4931792;29;20478;-70
2022/08/24 07:00:03;;;;;;;24.20;11.93;;;19.20;99.90;;;19.47;91.87;101588.44;4936218;29;20455;-70
2022/08/24 07:02:32;;;;;;;22.50;11.23;;;19.20;99.90;;;19.49;91.26;101591.81;4926832;29;20547;-70
2022/08/24 07:05:01;;;;;;;20.87;10.50;;;19.30;99.90;;;19.17;94.63;101602.34;4934329;29;20534;-69
2022/08/24 07:08:02;;;;;;;18.57;10.70;;;19.00;99.90;;;19.33;94.05;101600.75;4929867;29;20984;-71
2022/08/24 07:10:33;;;;;;;22.70;12.40;;;19.00;99.90;;;19.55;93.02;101604.56;4938056;29;20537;-71
2022/08/24 07:13:02;;;;;;;20.50;10.77;;;19.10;99.90;;;19.68;91.88;101604.25;4936865;29;20585;-71
2022/08/24 07:15:34;;;;;;;24.77;12.30;;;19.30;99.90;;;19.91;90.36;101606.88;4927083;29;20477;-71
2022/08/24 07:18:16;;;;;;;20.60;10.03;;;19.40;99.90;;;19.75;91.56;101604.94;4933632;29;20464;-70
2022/08/24 07:20:50;;;;;;;22.30;11.77;;;19.40;99.90;;;19.80;92.53;101598.72;4928495;29;20522;-70
2022/08/24 07:23:23;;;;;;;19.90;11.10;;;19.50;99.90;;;19.94;90.27;101600.09;4949990;28;20484;-70
2022/08/24 07:26:15;;;;;;;20.73;10.30;;;19.60;99.90;;;20.05;90.69;101596.41;4926770;29;20504;-70
2022/08/24 07:28:50;;;;;;;23.23;13.63;;;19.60;99.90;;;20.10;89.91;101599.25;4932340;29;20475;-69
2022/08/24 07:31:21;;;;;;;20.00;10.63;;;19.80;99.90;;;20.18;89.31;101593.38;4928719;29;20445;-70
2022/08/24 07:34:08;;;;;;;17.20;9.20;;;19.90;99.90;;;20.57;86.86;101607.22;4936272;29;20451;-70
2022/08/24 07:36:40;;;;;;;25.33;12.00;;;20.10;99.90;;;20.70;86.21;101612.38;4931839;29;21097;-70
2022/08/24 07:39:13;;;;;;;23.27;11.80;;;20.20;99.90;;;20.85;84.80;101609.84;4932020;29;20460;-70
2022/08/24 07:41:44;;;;;;;17.50;12.00;;;20.40;99.90;;;20.75;84.96;101615.19;4929795;29;20441;-70
2022/08/24 07:44:34;;;;;;;15.87;9.60;;;20.50;99.90;;;20.87;84.83;101610.41;4932872;29;20908;-69
2022/08/24 07:47:06;;;;;;;19.10;10.53;;;20.50;99.90;;;20.95;84.55;101614.66;4934097;28;20510;-70
2022/08/24 07:49:56;;;;;;;19.63;10.00;;;20.60;99.90;;;21.19;83.47;101614.22;4934706;29;20510;-70
2022/08/24 07:52:26;;;;;;;21.63;10.50;;;20.70;99.90;;;21.67;81.52;101612.59;4941901;29;20478;-71
2022/08/24 07:54:56;;;;;;;16.43;8.97;;;21.00;99.90;;;22.08;79.02;101606.41;4934916;29;20512;-69
2022/08/24 07:57:25;;;;;;;16.50;10.47;;;21.30;99.90;;;22.06;78.30;101614.13;4933007;28;20463;-69
2022/08/24 07:59:55;;;;;;;16.30;9.60;;;21.40;99.90;;;22.06;77.68;101618.81;4932371;29;20482;-70
2022/08/24 08:02:26;;;;;;;17.13;9.53;;;21.60;96.60;;;21.83;79.71;101619.94;4931756;29;20480;-70
2022/08/24 08:05:04;;;;;;;19.93;10.90;;;21.50;1.00;;;22.08;78.77;101625.72;4926958;29;20465;-70
2022/08/24 08:07:33;;;;;;;22.73;10.13;;;21.60;1.00;;;22.24;77.76;101620.34;4925138;29;20460;-71
2022/08/24 08:10:04;;;;;;;17.93;9.73;;;21.60;99.90;;;22.54;76.17;101629.72;4931915;29;20449;-71
2022/08/24 08:12:35;;;;;;;16.90;12.03;;;21.90;99.90;;;22.08;78.49;101628.47;4931070;29;20453;-70
2022/08/24 08:15:08;;;;;;;19.83;11.00;;;21.80;99.90;;;22.62;75.91;101624.78;4937918;29;20478;-70
2022/08/24 08:17:40;;;;;;;18.97;11.87;;;22.00;99.90;;;22.64;75.70;101622.63;4935494;29;20441;-70
2022/08/24 08:20:11;;;;;;;19.77;11.93;;;22.10;99.90;;;22.98;74.59;101629.50;4939998;29;20891;-70
2022/08/24 08:25:48;;;;;;;15.17;10.90;;;22.50;99.90;;;22.77;75.09;101617.50;4932369;29;20465;-71
2022/08/24 08:28:24;;;;;;;17.13;10.30;;;22.40;99.90;;;22.99;74.39;101613.78;4937737;29;20455;-71
2022/08/24 08:31:05;;;;;;;15.77;11.80;;;22.40;99.90;;;22.73;74.77;101627.41;4924363;29;20455;-71
2022/08/24 08:33:36;;;;;;;18.20;12.07;;;22.40;99.90;;;22.38;76.16;101621.56;4930343;29;20981;-71
2022/08/24 08:36:10;;;;;;;17.90;12.67;;;22.30;99.90;;;22.20;77.58;101630.25;4919117;29;20864;-71
2022/08/24 08:38:45;;;;;;;25.77;12.30;;;22.00;99.90;;;22.42;76.89;101622.69;4938399;28;20463;-72
2022/08/24 08:41:58;;;;;;;15.07;10.77;;;22.00;99.90;;;22.71;75.01;101629.59;4918560;29;20460;-71
2022/08/24 08:44:52;;;;;;;17.97;11.70;;;22.30;99.90;;;23.07;73.39;101622.38;4919086;29;20531;-72
2022/08/24 08:48:06;;;;;;;14.20;10.67;;;22.40;99.90;;;22.98;73.64;101620.38;4938864;28;20460;-72
2022/08/24 08:51:11;;;;;;;14.23;9.80;;;22.40;99.90;;;23.06;73.57;101625.38;4918405;29;20865;-73
2022/08/24 08:54:13;;;;;;;17.17;12.97;;;22.60;99.90;;;23.55;71.14;101635.06;4888934;29;20568;-72
2022/08/24 08:57:18;;;;;;;15.53;10.07;;;22.80;99.90;;;23.65;70.63;101631.50;4915955;29;21016;-71
2022/08/24 09:00:08;;;;;;;19.43;12.00;;;23.10;99.90;;;23.45;71.64;101639.69;4915471;29;20508;-71
2022/08/24 09:03:19;;;;;;;20.63;12.37;;;23.10;99.90;;;23.74;70.42;101638.97;4918867;29;20830;-72
2022/08/24 09:06:50;;;;;;;24.47;11.80;;;23.20;99.90;;;23.59;70.58;101638.94;4915354;29;20778;-72
2022/08/24 09:10:07;;;;;;;13.27;10.10;;;23.30;99.90;;;23.40;71.51;101635.78;4914260;29;20750;-72
2022/08/24 09:13:04;;;;;;;20.20;12.80;;;23.20;99.90;;;23.31;72.24;101636.56;4922315;29;20726;-71
2022/08/24 09:16:15;;;;;;;21.63;13.57;;;22.90;99.90;;;23.42;71.71;101632.75;4920763;29;20486;-71
2022/08/24 09:19:13;;;;;;;19.37;13.43;;;23.00;99.90;;;23.47;71.60;101631.97;4919912;29;20551;-72
2022/08/24 09:22:09;;;;;;;21.53;13.90;;;22.90;99.90;;;23.42;72.43;101635.53;4919974;29;20843;-73
2022/08/24 09:25:10;;;;;;;20.27;13.70;;;23.00;99.90;;;23.42;71.70;101634.69;4919917;29;20828;-73
2022/08/24 09:28:03;;;;;;;21.10;12.93;;;23.20;99.90;;;23.24;71.79;101638.72;4919474;29;20540;-71
2022/08/24 09:31:10;;;;;;;24.03;14.57;;;23.00;99.90;;;23.06;73.02;101641.94;4916656;29;20453;-70
2022/08/24 09:33:48;;;;;;;16.63;11.90;;;22.90;99.90;;;23.67;70.85;101641.16;4919638;29;20464;-71
2022/08/24 09:36:33;;;;;;;22.20;12.87;;;23.00;99.90;;;23.54;70.24;101646.38;4917606;29;20494;-72
2022/08/24 09:39:31;;;;;;;17.57;11.93;;;23.20;99.90;;;23.79;69.42;101641.75;4919220;29;20449;-72
2022/08/24 09:42:53;;;;;;;19.13;12.27;;;23.30;99.90;;;24.20;68.15;101639.13;4920393;29;20881;-72
2022/08/24 09:46:29;;;;;;;16.03;10.50;;;23.70;99.90;;;24.18;67.46;101638.56;4920157;29;20537;-71
2022/08/24 09:49:50;;;;;;;17.77;10.80;;;23.80;99.90;;;23.87;68.26;101640.38;4920095;29;20947;-70
2022/08/24 09:53:16;;;;;;;19.03;11.23;;;23.70;99.90;;;23.78;68.99;101637.31;4919747;29;20978;-71
2022/08/24 09:56:27;;;;;;;15.67;11.70;;;23.40;99.90;;;23.81;68.99;101644.25;4921975;29;22464;-71
2022/08/24 09:59:21;;;;;;;20.20;12.40;;;23.50;99.90;;;23.71;69.26;101639.53;4918934;29;20445;-72
2022/08/24 10:02:18;;;;;;;14.30;11.40;;;23.20;99.90;;;23.78;69.10;101633.72;4919436;29;20503;-72
2022/08/24 10:05:04;;;;;;;17.57;12.93;;;23.30;99.90;;;23.79;69.41;101644.53;4918360;28;20464;-71
2022/08/24 10:07:46;;;;;;;16.00;13.00;;;23.40;99.90;;;23.66;69.72;101636.75;4924681;29;20420;-71
2022/08/24 10:10:35;;;;;;;16.50;10.87;;;23.50;99.90;;;23.67;69.92;101643.91;4919810;29;20528;-71
2022/08/24 10:13:20;;;;;;;17.13;14.13;;;23.50;99.90;;;23.50;70.55;101640.56;4918799;29;20453;-71
2022/08/24 10:16:17;;;;;;;18.10;13.53;;;23.40;99.90;;;23.48;71.34;101642.75;4922088;29;20543;-71
2022/08/24 10:19:03;;;;;;;16.20;12.23;;;23.20;99.90;;;23.77;70.34;101638.44;4918195;29;20823;-72
2022/08/24 10:21:53;;;;;;;19.60;12.80;;;23.40;99.90;;;23.78;69.98;101630.97;4921696;29;20782;-71
2022/08/24 10:25:02;;;;;;;17.60;12.67;;;23.50;99.90;;;23.80;70.10;101623.25;4924666;29;20492;-73
2022/08/24 10:27:49;;;;;;;16.83;13.10;;;23.40;99.90;;;24.23;69.02;101627.50;4912811;29;20547;-71
2022/08/24 10:30:56;;;;;;;18.30;11.70;;;23.50;99.90;;;24.37;67.20;101634.13;4927297;29;20476;-73
2022/08/24 10:33:28;;;;;;;17.70;12.93;;;23.90;99.90;;;24.25;67.84;101628.06;4917682;29;20469;-72
2022/08/24 10:36:31;;;;;;;14.50;11.50;;;23.80;99.90;;;24.56;66.80;101626.09;4913332;29;20477;-71
2022/08/24 10:39:42;;;;;;;18.67;10.97;;;24.00;99.90;;;24.88;65.88;101621.13;4924804;29;20471;-71
2022/08/24 10:46:48;;;;;;;13.07;10.20;;;24.60;99.90;;;25.55;63.68;101619.81;4926255;29;20546;-71
2022/08/24 10:50:11;;;;;;;16.87;11.80;;;24.60;99.90;;;25.72;62.14;101625.81;4910056;29;20543;-71
2022/08/24 10:53:17;;;;;;;19.50;11.77;;;24.70;99.90;;;25.82;61.38;101617.44;4929140;29;20560;-71
2022/08/24 10:56:02;;;;;;;13.53;11.43;;;25.30;99.90;;;25.55;62.27;101617.03;4936548;29;21085;-71